createdAt,value
2018-07-28T00:03:05.670Z,23.60
2018-07-28T00:07:09.330Z,23.50
2018-07-28T00:11:12.890Z,23.40
2018-07-28T00:15:16.580Z,23.30
2018-07-28T00:19:20.170Z,23.20
2018-07-28T00:23:24.182Z,23.20
2018-07-28T00:27:29.798Z,23.20
2018-07-28T00:31:33.378Z,23.20
2018-07-28T00:35:36.906Z,23.10
2018-07-28T00:39:40.478Z,23.20
2018-07-28T00:43:44.019Z,23.30
2018-07-28T00:47:47.581Z,23.50
2018-07-28T00:51:51.105Z,23.40
2018-07-28T00:55:56.726Z,23.20
2018-07-28T01:00:00.256Z,23.60
2018-07-28T01:04:04.533Z,23.60
2018-07-28T01:08:08.046Z,23.10
2018-07-28T01:12:14.981Z,23.00
2018-07-28T01:16:18.734Z,23.00
2018-07-28T01:20:22.459Z,23.20
2018-07-28T01:24:28.342Z,22.90
2018-07-28T01:28:31.941Z,22.70
2018-07-28T01:32:35.485Z,22.40
2018-07-28T01:36:39.078Z,22.30
2018-07-28T01:40:43.657Z,22.50
2018-07-28T01:44:47.271Z,22.30
2018-07-28T01:48:50.797Z,22.30
2018-07-28T01:52:54.355Z,22.30
2018-07-28T01:56:57.874Z,22.30
2018-07-28T02:01:01.563Z,22.30
2018-07-28T02:05:06.322Z,22.40
2018-07-28T02:09:12.157Z,22.40
2018-07-28T02:13:15.702Z,22.10
2018-07-28T02:17:19.348Z,22.20
2018-07-28T02:21:22.853Z,21.90
2018-07-28T02:25:26.418Z,21.80
2018-07-28T02:29:29.949Z,21.60
2018-07-28T02:33:33.595Z,21.40
2018-07-28T02:37:37.147Z,21.30
2018-07-28T02:41:41.312Z,21.30
2018-07-28T02:45:47.894Z,21.30
2018-07-28T02:49:51.482Z,21.60
2018-07-28T02:53:55.015Z,21.60
2018-07-28T02:57:58.604Z,21.60
2018-07-28T03:02:02.170Z,21.70
2018-07-28T03:06:05.895Z,22.00
2018-07-28T03:10:09.633Z,21.30
2018-07-28T03:14:16.758Z,21.40
2018-07-28T03:18:20.349Z,21.10
2018-07-28T03:22:23.889Z,20.90
2018-07-28T03:26:27.407Z,20.80
2018-07-28T03:30:30.964Z,20.70
2018-07-28T03:34:34.462Z,20.90
2018-07-28T03:38:38.110Z,20.90
2018-07-28T03:42:41.898Z,20.80
2018-07-28T03:46:45.482Z,20.90
2018-07-28T03:50:49.049Z,21.00
2018-07-28T03:54:52.998Z,21.40
2018-07-28T03:58:56.511Z,21.60
2018-07-28T04:03:00.177Z,21.30
2018-07-28T04:07:03.789Z,20.70
2018-07-28T04:11:08.374Z,20.40
2018-07-28T04:15:13.314Z,20.30
2018-07-28T04:19:17.005Z,20.20
2018-07-28T04:23:20.572Z,20.40
2018-07-28T04:27:30.206Z,20.40
2018-07-28T04:31:33.824Z,20.30
2018-07-28T04:35:37.396Z,20.50
2018-07-28T04:39:40.882Z,21.10
2018-07-28T04:43:44.414Z,21.10
2018-07-28T04:47:48.001Z,21.40
2018-07-28T04:51:56.118Z,21.00
2018-07-28T04:55:59.689Z,20.70
2018-07-28T05:00:03.979Z,20.80
2018-07-28T05:04:07.610Z,20.90
2018-07-28T05:08:11.140Z,21.00
2018-07-28T05:12:14.646Z,21.00
2018-07-28T05:16:18.268Z,21.10
2018-07-28T05:20:25.227Z,20.70
2018-07-28T05:24:28.809Z,20.50
2018-07-28T05:28:32.363Z,20.60
2018-07-28T05:32:36.353Z,20.80
2018-07-28T05:36:39.870Z,20.90
2018-07-28T05:40:48.125Z,21.30
2018-07-28T05:44:51.765Z,22.10
2018-07-28T05:48:55.417Z,22.50
2018-07-28T05:52:58.954Z,22.80
2018-07-28T05:57:02.550Z,23.50
2018-07-28T06:01:06.474Z,24.00
2018-07-28T06:05:10.140Z,24.00
2018-07-28T06:09:13.755Z,24.10
2018-07-28T06:13:17.304Z,23.80
2018-07-28T06:17:20.871Z,23.80
2018-07-28T06:25:28.789Z,24.90
2018-07-28T06:29:32.331Z,25.20
2018-07-28T06:33:35.834Z,25.40
2018-07-28T06:37:39.437Z,24.60
2018-07-28T06:41:45.049Z,24.20
2018-07-28T06:45:48.699Z,24.00
2018-07-28T06:49:52.385Z,23.90
2018-07-28T06:54:06.670Z,23.90
2018-07-28T06:58:10.221Z,23.80
2018-07-28T07:02:13.796Z,23.70
2018-07-28T07:06:17.310Z,23.70
2018-07-28T07:10:20.870Z,23.60
2018-07-28T07:14:24.420Z,23.40
2018-07-28T07:18:27.992Z,22.80
2018-07-28T07:22:32.134Z,22.40
2018-07-28T07:26:35.714Z,22.50
2018-07-28T07:30:39.261Z,22.30
2018-07-28T07:34:46.582Z,22.10
2018-07-28T07:38:50.173Z,22.00
2018-07-28T07:42:53.726Z,22.10
2018-07-28T07:46:58.286Z,22.10
2018-07-28T07:51:01.934Z,22.10
2018-07-28T07:55:05.534Z,22.10
2018-07-28T07:59:12.694Z,22.10
2018-07-28T08:03:16.401Z,21.60
2018-07-28T08:07:20.036Z,21.40
2018-07-28T08:11:24.145Z,21.40
2018-07-28T08:15:27.675Z,21.30
2018-07-28T08:19:31.222Z,21.30
2018-07-28T08:23:34.814Z,21.70
2018-07-28T08:27:38.339Z,22.40
2018-07-28T08:31:42.047Z,22.50
2018-07-28T08:35:45.554Z,22.40
2018-07-28T08:39:49.125Z,22.60
2018-07-28T08:43:52.610Z,22.90
2018-07-28T08:47:56.094Z,22.70
2018-07-28T08:51:59.586Z,22.60
2018-07-28T08:56:03.139Z,22.40
2018-07-28T09:00:07.626Z,22.50
2018-07-28T09:04:12.257Z,22.70
2018-07-28T09:08:15.750Z,22.60
2018-07-28T09:12:19.361Z,22.70
2018-07-28T09:16:22.878Z,22.90
2018-07-28T09:20:26.563Z,23.20
2018-07-28T09:24:30.254Z,23.10
2018-07-28T09:28:34.150Z,23.50
2018-07-28T09:32:37.717Z,24.00
2018-07-28T09:36:43.431Z,24.30
2018-07-28T09:40:47.034Z,25.30
2018-07-28T09:44:50.906Z,26.90
2018-07-28T09:48:54.507Z,25.90
2018-07-28T09:52:58.135Z,25.60
2018-07-28T09:57:01.834Z,24.60
2018-07-28T10:01:11.540Z,24.00
2018-07-28T10:05:15.090Z,23.70
2018-07-28T10:09:18.609Z,23.60
2018-07-28T10:13:22.130Z,23.90
2018-07-28T10:17:25.687Z,24.80
2018-07-28T10:21:42.775Z,25.20
2018-07-28T10:25:46.346Z,26.70
2018-07-28T10:29:49.830Z,26.30
2018-07-28T10:33:53.861Z,25.70
2018-07-28T10:38:07.202Z,25.40
2018-07-28T10:42:10.724Z,25.60
2018-07-28T10:46:16.365Z,25.80
2018-07-28T10:50:24.827Z,26.30
2018-07-28T10:54:28.390Z,26.90
2018-07-28T10:58:31.943Z,27.60
2018-07-28T11:02:35.446Z,27.90
2018-07-28T11:06:39.242Z,28.50
2018-07-28T11:10:42.731Z,29.20
2018-07-28T11:14:46.302Z,28.90
2018-07-28T11:19:13.362Z,29.40
2018-07-28T11:24:02.378Z,29.90
2018-07-28T11:28:07.056Z,29.40
2018-07-28T11:32:22.214Z,29.70
2018-07-28T11:36:36.780Z,30.00
2018-07-28T11:40:51.561Z,30.20
2018-07-28T11:45:06.926Z,30.40
2018-07-28T11:49:11.526Z,30.30
2018-07-28T11:53:15.052Z,30.10
2018-07-28T11:57:18.577Z,29.70
2018-07-28T12:01:38.736Z,29.10
2018-07-28T12:05:43.422Z,28.90
2018-07-28T12:09:46.907Z,29.00
2018-07-28T12:13:50.606Z,28.80
2018-07-28T12:17:54.089Z,28.80
2018-07-28T12:21:58.002Z,29.90
2018-07-28T12:26:01.523Z,29.80
2018-07-28T12:30:06.354Z,29.40
2018-07-28T12:34:09.894Z,29.10
2018-07-28T12:38:13.430Z,29.10
2018-07-28T12:42:16.917Z,28.90
2018-07-28T12:46:20.517Z,28.50
2018-07-28T12:50:41.961Z,28.30
2018-07-28T12:58:48.922Z,28.20
2018-07-28T13:02:57.502Z,27.80
2018-07-28T13:07:01.011Z,27.40
2018-07-28T13:11:04.614Z,27.10
2018-07-28T13:15:17.689Z,26.90
2018-07-28T13:19:21.219Z,27.00
2018-07-28T13:23:24.714Z,26.80
2018-07-28T13:27:28.754Z,26.80
2018-07-28T13:31:32.380Z,27.00
2018-07-28T13:35:36.346Z,27.00
2018-07-28T13:39:39.897Z,26.90
2018-07-28T13:43:49.226Z,26.60
2018-07-28T13:47:52.873Z,26.20
2018-07-28T13:51:56.388Z,26.00
2018-07-28T13:56:00.346Z,26.00
2018-07-28T14:00:11.944Z,25.90
2018-07-28T14:04:15.518Z,25.90
2018-07-28T14:08:19.147Z,25.80
2018-07-28T14:12:27.405Z,25.00
2018-07-28T14:16:34.322Z,22.00
2018-07-28T14:20:37.834Z,20.90
2018-07-28T14:29:09.613Z,21.00
2018-07-28T14:33:15.390Z,20.70
2018-07-28T14:37:19.034Z,21.00
2018-07-28T14:41:30.534Z,21.10
2018-07-28T14:45:34.145Z,21.50
2018-07-28T14:49:37.754Z,22.10
2018-07-28T14:53:41.455Z,22.40
2018-07-28T14:57:45.052Z,22.50
2018-07-28T15:01:48.698Z,22.90
2018-07-28T15:05:52.363Z,22.80
2018-07-28T15:10:03.390Z,22.90
2018-07-28T15:14:06.983Z,22.90
2018-07-28T15:18:10.546Z,23.00
2018-07-28T15:22:14.117Z,23.30
2018-07-28T15:26:17.729Z,23.50
2018-07-28T15:30:21.805Z,24.00
2018-07-28T15:34:25.396Z,23.90
2018-07-28T15:38:29.047Z,23.70
2018-07-28T15:42:32.674Z,23.50
2018-07-28T15:46:36.634Z,23.50
2018-07-28T15:50:40.136Z,23.40
2018-07-28T15:54:43.997Z,23.20
2018-07-28T15:58:47.509Z,23.00
2018-07-28T16:02:51.176Z,23.10
2018-07-28T16:06:54.687Z,23.20
2018-07-28T16:10:58.662Z,23.20
2018-07-28T16:15:02.202Z,23.10
2018-07-28T16:19:12.664Z,23.20
2018-07-28T16:23:16.214Z,23.20
2018-07-28T16:27:19.880Z,23.50
2018-07-28T16:31:23.518Z,23.40
2018-07-28T16:35:27.187Z,23.40
2018-07-28T16:39:30.674Z,23.40
2018-07-28T16:43:34.654Z,23.60
2018-07-28T16:47:39.319Z,23.70
2018-07-28T16:55:46.017Z,23.40
2018-07-28T16:59:49.902Z,23.30
2018-07-28T17:03:53.474Z,23.30
2018-07-28T17:07:57.015Z,23.40
2018-07-28T17:12:01.615Z,23.60
2018-07-28T17:16:05.286Z,23.80
2018-07-28T17:20:08.930Z,24.00
2018-07-28T17:24:12.522Z,24.10
2018-07-28T17:28:15.997Z,24.10
2018-07-28T17:32:21.677Z,24.00
2018-07-28T17:36:25.261Z,24.00
2018-07-28T17:40:28.810Z,23.80
2018-07-28T17:44:32.449Z,23.80
2018-07-28T17:48:36.058Z,23.80
2018-07-28T17:52:39.601Z,23.70
2018-07-28T17:56:43.147Z,23.60
2018-07-28T18:00:46.746Z,23.70
2018-07-28T18:04:51.321Z,23.80
2018-07-28T18:08:54.954Z,23.80
2018-07-28T18:12:58.541Z,24.00
2018-07-28T18:17:05.856Z,23.30
2018-07-28T18:21:09.732Z,22.80
2018-07-28T18:25:14.505Z,23.00
2018-07-28T18:29:18.486Z,22.80
2018-07-28T18:37:25.247Z,22.80
2018-07-28T18:45:32.050Z,23.40
2018-07-28T18:49:35.572Z,23.20
2018-07-28T18:53:39.163Z,22.50
2018-07-28T18:57:46.534Z,22.70
2018-07-28T19:01:50.079Z,23.10
2018-07-28T19:05:53.638Z,23.00
2018-07-28T19:10:02.640Z,22.70
2018-07-28T19:14:11.470Z,22.30
2018-07-28T19:18:20.474Z,22.30
2018-07-28T19:22:30.484Z,22.30
2018-07-28T19:26:52.219Z,22.10
2018-07-28T19:30:55.894Z,22.00
2018-07-28T19:35:06.262Z,22.10
2018-07-28T19:39:10.694Z,21.90
2018-07-28T19:43:14.324Z,21.70
2018-07-28T19:47:17.848Z,21.60
2018-07-28T19:51:25.928Z,21.60
2018-07-28T19:55:29.510Z,21.50
2018-07-28T19:59:34.488Z,21.70
2018-07-28T20:03:40.115Z,21.50
2018-07-28T20:07:43.758Z,21.50
2018-07-28T20:11:47.258Z,21.30
2018-07-28T20:15:50.870Z,21.30
2018-07-28T20:19:54.522Z,21.10
2018-07-28T20:24:05.982Z,21.00
2018-07-28T20:28:09.560Z,21.00
2018-07-28T20:32:13.328Z,20.90
2018-07-28T20:36:16.911Z,20.80
2018-07-28T20:40:20.586Z,21.20
2018-07-28T20:44:24.134Z,21.10
2018-07-28T20:48:27.881Z,20.80
2018-07-28T20:52:31.394Z,20.70
2018-07-28T20:56:34.954Z,20.60
2018-07-28T21:00:38.462Z,20.60
2018-07-28T21:04:42.027Z,20.60
2018-07-28T21:08:45.550Z,20.60
2018-07-28T21:12:50.210Z,20.50
2018-07-28T21:16:58.797Z,20.30
2018-07-28T21:21:02.358Z,20.20
2018-07-28T21:25:10.797Z,20.20
2018-07-28T21:29:17.995Z,20.20
2018-07-28T21:33:22.621Z,20.20
2018-07-28T21:37:26.386Z,20.20
2018-07-28T21:41:33.494Z,20.30
2018-07-28T21:45:42.850Z,20.30
2018-07-28T21:49:46.393Z,20.20
2018-07-28T21:53:49.983Z,20.20
2018-07-28T21:57:53.513Z,20.20
2018-07-28T22:01:57.165Z,20.00
2018-07-28T22:06:00.674Z,20.10
2018-07-28T22:10:04.580Z,19.90
2018-07-28T22:14:08.139Z,20.00
2018-07-28T22:18:12.806Z,20.40
2018-07-28T22:22:16.478Z,20.50
2018-07-28T22:26:23.788Z,20.00
2018-07-28T22:30:28.390Z,19.70
2018-07-28T22:34:31.985Z,19.80
2018-07-28T22:38:35.606Z,19.80
2018-07-28T22:42:53.778Z,19.70
2018-07-28T22:46:57.363Z,20.10
2018-07-28T22:51:01.022Z,19.50
2018-07-28T22:55:05.674Z,19.30
2018-07-28T22:59:09.211Z,19.30
2018-07-28T23:03:13.010Z,19.30
2018-07-28T23:07:16.786Z,19.40
2018-07-28T23:11:20.350Z,19.40
2018-07-28T23:15:23.914Z,19.40
2018-07-28T23:19:35.743Z,19.50
2018-07-28T23:23:39.334Z,19.30
2018-07-28T23:27:44.842Z,19.30
2018-07-28T23:31:50.254Z,19.30
2018-07-28T23:35:53.821Z,19.40
2018-07-28T23:39:57.353Z,19.30
2018-07-28T23:44:01.443Z,19.20
2018-07-28T23:48:05.153Z,19.10
2018-07-28T23:52:15.579Z,19.10
2018-07-28T23:56:19.522Z,19.00
